Time;durP1;ratioP1;P1;durP2;ratioP2;P2;SDS_P1;SDS_P2;PMS_P1;PMS_P2;Temp;Humidity;BMP_temperature;BMP_pressure;BME280_temperature;BME280_humidity;BME280_pressure;Samples;Min_cycle;Max_cycle;Signal;HPM_P1;HPM_P2
2023/03/30 00:00:37;;;;;;;4.43;1.65;;;;;;;12.96;53.15;96411.91;6184824;23;20031;-75
2023/03/30 00:03:04;;;;;;;8.90;2.47;;;;;;;12.99;53.16;96413.34;6183752;23;20024;-75
2023/03/30 00:05:34;;;;;;;7.43;2.50;;;;;;;12.99;53.22;96413.34;6182840;23;20103;-75
2023/03/30 00:08:02;;;;;;;9.60;1.90;;;;;;;12.99;53.21;96408.91;6184165;23;20033;-74
2023/03/30 00:10:31;;;;;;;8.35;2.15;;;;;;;12.99;53.30;96406.28;6184943;23;20096;-75
2023/03/30 00:12:59;;;;;;;6.38;2.00;;;;;;;13.00;53.46;96407.09;6183796;23;20021;-75
2023/03/30 00:15:26;;;;;;;3.75;1.80;;;;;;;12.99;53.70;96408.09;6184496;23;20075;-75
2023/03/30 00:17:54;;;;;;;7.88;2.53;;;;;;;12.98;53.81;96406.47;6182984;23;20021;-75
2023/03/30 00:20:22;;;;;;;6.40;1.90;;;;;;;12.99;53.93;96400.25;6183831;23;20024;-75
2023/03/30 00:22:50;;;;;;;7.47;2.33;;;;;;;13.00;53.92;96407.09;6184470;23;20037;-75
2023/03/30 00:25:18;;;;;;;8.10;3.03;;;;;;;13.02;54.11;96405.06;6184813;23;20056;-74
2023/03/30 00:27:47;;;;;;;7.78;2.60;;;;;;;13.04;54.17;96404.88;6186477;23;20361;-75
2023/03/30 00:30:17;;;;;;;5.90;1.88;;;;;;;13.05;54.24;96415.13;6199917;23;20056;-75
2023/03/30 00:32:46;;;;;;;11.30;2.63;;;;;;;13.04;54.29;96429.25;6199638;23;20017;-75
2023/03/30 00:35:14;;;;;;;9.73;2.38;;;;;;;13.05;54.35;96425.59;6187305;23;20071;-74
2023/03/30 00:37:44;;;;;;;10.27;2.55;;;;;;;13.07;54.35;96431.44;6184345;23;20024;-75
2023/03/30 00:40:16;;;;;;;15.40;2.53;;;;;;;13.09;54.58;96421.56;6184508;23;20358;-75
2023/03/30 00:42:44;;;;;;;10.32;2.50;;;;;;;13.10;55.22;96446.78;6184266;23;20053;-75
2023/03/30 00:45:19;;;;;;;8.63;2.75;;;;;;;13.10;56.07;96470.34;6184770;23;20021;-74
2023/03/30 00:47:52;;;;;;;15.15;2.67;;;;;;;13.10;57.61;96472.97;6184694;23;20025;-75
2023/03/30 00:50:21;;;;;;;;;;;;;;;13.09;56.99;96476.56;6185174;23;20025;-75
2023/03/30 00:52:52;;;;;;;6.63;2.30;;;;;;;13.07;58.19;96475.97;6184160;23;19917;-75
2023/03/30 00:55:22;;;;;;;9.82;2.53;;;;;;;13.06;59.21;96479.59;6184209;23;20193;-75
2023/03/30 00:57:51;;;;;;;10.98;2.33;;;;;;;13.06;59.73;96474.38;6184701;23;20367;-74
2023/03/30 01:00:21;;;;;;;9.32;2.30;;;;;;;13.07;60.38;96462.88;6184540;23;20414;-75
2023/03/30 01:02:54;;;;;;;5.93;2.22;;;;;;;13.09;60.60;96471.34;6183914;23;20095;-75
2023/03/30 01:05:23;;;;;;;12.43;2.13;;;;;;;13.10;60.51;96465.09;6184349;23;20100;-74
2023/03/30 01:07:52;;;;;;;8.65;2.58;;;;;;;13.12;61.10;96452.63;6184445;23;20082;-75
2023/03/30 01:10:20;;;;;;;12.32;3.10;;;;;;;13.13;62.09;96461.28;6184432;23;20027;-74
2023/03/30 01:12:48;;;;;;;8.52;2.58;;;;;;;13.10;62.06;96456.44;6183796;23;20024;-75
2023/03/30 01:15:16;;;;;;;8.68;2.35;;;;;;;13.08;61.71;96450.59;6184198;23;20032;-74
2023/03/30 01:17:59;;;;;;;9.23;2.17;;;;;;;13.06;62.76;96458.66;6184579;23;20044;-75
2023/03/30 01:20:55;;;;;;;9.13;2.70;;;;;;;13.04;63.54;96444.97;6184121;23;20497;-75
2023/03/30 01:24:02;;;;;;;11.45;3.08;;;;;;;12.99;64.26;96427.22;6183128;23;20028;-75
2023/03/30 01:26:45;;;;;;;14.27;3.10;;;;;;;12.92;64.94;96412.50;6183858;23;20079;-74
2023/03/30 01:29:23;;;;;;;12.23;2.97;;;;;;;12.82;65.25;96383.34;6184106;23;20017;-74
2023/03/30 01:32:29;;;;;;;10.07;2.63;;;;;;;12.76;65.91;96364.00;6183556;23;20455;-75
2023/03/30 01:35:15;;;;;;;10.57;2.38;;;;;;;12.69;66.56;96361.38;6137638;23;20100;-75
2023/03/30 01:38:04;;;;;;;12.43;3.70;;;;;;;12.65;66.96;96365.38;6184413;23;20076;-75
2023/03/30 01:40:40;;;;;;;13.63;2.83;;;;;;;12.64;67.22;96370.81;6184050;23;20025;-75
2023/03/30 01:43:16;;;;;;;8.80;3.08;;;;;;;12.61;67.19;96366.78;6184033;23;20020;-75
2023/03/30 01:45:46;;;;;;;10.75;3.05;;;;;;;12.55;67.00;96357.13;6184314;23;20100;-75
2023/03/30 01:48:18;;;;;;;12.48;2.40;;;;;;;12.51;67.00;96355.94;6184458;23;20021;-75
2023/03/30 01:50:51;;;;;;;11.38;2.42;;;;;;;12.46;67.39;96353.09;6184291;23;20107;-75
2023/03/30 01:53:25;;;;;;;8.73;3.35;;;;;;;12.44;67.50;96347.25;6183735;23;20024;-75
2023/03/30 01:55:57;;;;;;;11.68;2.13;;;;;;;12.42;67.54;96346.63;6184118;23;20027;-74
2023/03/30 01:58:30;;;;;;;10.38;2.78;;;;;;;12.39;67.36;96342.63;6184373;23;20362;-75
2023/03/30 02:01:01;;;;;;;10.73;3.22;;;;;;;12.39;67.35;96336.59;6184044;23;20025;-75
2023/03/30 02:03:32;;;;;;;7.78;2.05;;;;;;;12.38;67.60;96329.75;6184049;23;20017;-74
2023/03/30 02:06:05;;;;;;;7.35;2.03;;;;;;;12.34;68.01;96330.13;6185910;23;20104;-75
2023/03/30 02:08:36;;;;;;;10.05;2.30;;;;;;;12.32;68.14;96344.44;6186120;23;20056;-75
2023/03/30 02:11:06;;;;;;;6.80;2.67;;;;;;;12.31;68.35;96358.50;6185997;23;20023;-75
2023/03/30 02:13:36;;;;;;;12.80;2.55;;;;;;;12.29;68.68;96358.72;6185525;23;20098;-74
2023/03/30 02:16:09;;;;;;;6.97;2.30;;;;;;;12.29;69.28;96353.47;6185994;23;20025;-75
2023/03/30 02:18:37;;;;;;;;;;;;;;;12.30;68.60;96360.31;6186508;23;20044;-75
2023/03/30 02:21:05;;;;;;;11.95;2.58;;;;;;;12.31;67.72;96377.63;6185426;23;20003;-75
2023/03/30 02:23:38;;;;;;;12.00;2.63;;;;;;;12.34;67.42;96379.03;6185705;23;20048;-75
2023/03/30 02:26:07;;;;;;;10.85;2.58;;;;;;;12.38;67.43;96382.88;6186048;23;20323;-75
2023/03/30 02:28:35;;;;;;;12.43;3.30;;;;;;;12.42;67.22;96378.03;6186305;23;20366;-75
2023/03/30 02:31:04;;;;;;;12.55;2.88;;;;;;;12.46;67.43;96368.78;6185607;23;20055;-74
2023/03/30 02:33:46;;;;;;;8.40;2.28;;;;;;;12.48;67.72;96366.78;6185700;23;20027;-74
2023/03/30 02:36:29;;;;;;;14.88;3.03;;;;;;;12.49;67.75;96368.41;6185450;23;20039;-75
2023/03/30 02:39:16;;;;;;;10.15;3.10;;;;;;;12.51;67.74;96367.19;6185777;23;20104;-75
2023/03/30 02:42:05;;;;;;;10.93;3.75;;;;;;;12.53;67.74;96374.84;6185278;23;20101;-75
2023/03/30 02:44:42;;;;;;;11.43;2.60;;;;;;;12.54;67.82;96376.44;6185657;23;20100;-75
2023/03/30 02:47:13;;;;;;;10.02;2.70;;;;;;;12.55;67.88;96375.44;6185803;23;20104;-75
2023/03/30 02:49:53;;;;;;;8.48;2.50;;;;;;;12.56;68.18;96382.28;6185509;23;20025;-75
2023/03/30 02:52:36;;;;;;;11.90;3.22;;;;;;;12.53;68.14;96385.31;6184975;23;20021;-75
2023/03/30 02:55:12;;;;;;;8.20;2.78;;;;;;;12.53;68.73;96386.13;6185498;23;20017;-75
2023/03/30 02:57:54;;;;;;;12.00;2.83;;;;;;;12.55;68.01;96385.91;6185511;23;20060;-75
2023/03/30 03:00:28;;;;;;;16.55;3.75;;;;;;;12.54;68.31;96376.44;6185466;23;20362;-74
2023/03/30 03:02:59;;;;;;;11.18;3.45;;;;;;;12.56;67.90;96363.97;6185187;23;20029;-75
2023/03/30 03:05:31;;;;;;;10.23;2.35;;;;;;;12.55;68.00;96364.97;6185548;23;20021;-75
2023/03/30 03:07:58;;;;;;;14.82;3.03;;;;;;;12.54;68.09;96360.75;6185491;23;20375;-75
2023/03/30 03:10:26;;;;;;;10.80;2.55;;;;;;;12.55;67.92;96367.59;6185536;23;20108;-75
2023/03/30 03:12:55;;;;;;;13.00;3.78;;;;;;;12.55;68.06;96368.41;6184841;23;20119;-76
2023/03/30 03:15:22;;;;;;;8.95;2.72;;;;;;;12.58;68.49;96372.44;6184843;23;20021;-75
2023/03/30 03:17:50;;;;;;;11.40;2.38;;;;;;;12.60;68.15;96369.63;6185421;23;20028;-75
2023/03/30 03:20:18;;;;;;;10.75;3.13;;;;;;;12.60;68.39;96364.41;6185225;23;20080;-75
2023/03/30 03:22:46;;;;;;;11.98;2.72;;;;;;;12.60;68.45;96380.91;6185009;23;20363;-75
2023/03/30 03:25:14;;;;;;;9.52;2.70;;;;;;;12.63;68.45;96377.88;6185179;23;20351;-75
2023/03/30 03:27:41;;;;;;;17.27;3.15;;;;;;;12.64;68.50;96379.50;6185137;23;20494;-75
2023/03/30 03:30:12;;;;;;;11.75;2.38;;;;;;;12.66;68.82;96385.34;6185601;23;20021;-75
2023/03/30 03:32:39;;;;;;;9.75;3.60;;;;;;;12.68;69.05;96378.09;6185613;23;20021;-75
2023/03/30 03:35:08;;;;;;;10.35;2.70;;;;;;;12.70;69.21;96370.03;6187067;23;20020;-77
2023/03/30 03:37:35;;;;;;;10.90;2.28;;;;;;;12.71;69.46;96376.88;6190756;23;20020;-76
2023/03/30 03:40:05;;;;;;;13.05;2.70;;;;;;;12.73;69.33;96378.28;6198644;23;20021;-76
2023/03/30 03:42:32;;;;;;;15.25;3.47;;;;;;;12.76;69.15;96383.09;6196935;23;20076;-76
2023/03/30 03:45:00;;;;;;;15.07;3.35;;;;;;;12.82;68.93;96378.09;6186809;23;20021;-75
2023/03/30 03:47:29;;;;;;;9.98;2.78;;;;;;;12.86;69.21;96374.06;6185547;23;20100;-75
2023/03/30 03:49:56;;;;;;;8.43;3.00;;;;;;;12.90;69.18;96367.41;6185289;23;20032;-76
2023/03/30 03:52:24;;;;;;;10.25;3.28;;;;;;;12.91;69.59;96377.69;6184961;23;20017;-76
2023/03/30 03:54:51;;;;;;;18.83;4.13;;;;;;;12.94;69.84;96379.91;6185573;23;20024;-76
2023/03/30 03:57:19;;;;;;;12.43;4.53;;;;;;;12.97;70.05;96370.84;6185440;23;20021;-76
2023/03/30 03:59:46;;;;;;;10.07;3.13;;;;;;;13.00;69.92;96373.03;6185135;23;20056;-76
2023/03/30 04:02:14;;;;;;;15.35;2.90;;;;;;;13.02;69.98;96355.31;6184264;23;20063;-76
2023/03/30 04:04:43;;;;;;;18.00;3.70;;;;;;;13.04;70.74;96345.44;6185186;23;20100;-76
2023/03/30 04:07:11;;;;;;;22.00;5.72;;;;;;;13.06;71.10;96332.97;6184987;23;20021;-76
2023/03/30 04:09:39;;;;;;;25.23;5.75;;;;;;;13.09;71.46;96332.53;6184523;23;20069;-76
2023/03/30 04:12:07;;;;;;;19.08;4.93;;;;;;;13.10;71.73;96322.91;6184716;23;20109;-76
2023/03/30 04:14:34;;;;;;;12.60;3.55;;;;;;;13.07;72.05;96318.84;6184229;23;20013;-76
2023/03/30 04:17:02;;;;;;;15.27;3.60;;;;;;;13.01;72.27;96319.69;6184912;23;20077;-76
2023/03/30 04:19:30;;;;;;;15.27;3.50;;;;;;;12.96;72.33;96312.41;6185006;23;20032;-76
2023/03/30 04:21:59;;;;;;;17.10;4.68;;;;;;;12.92;72.73;96302.56;6184176;23;20025;-76
2023/03/30 04:24:28;;;;;;;15.98;3.80;;;;;;;12.87;72.73;96292.69;6184286;23;20466;-76
2023/03/30 04:26:56;;;;;;;14.20;4.10;;;;;;;12.82;73.03;96295.13;6184618;23;20417;-76
2023/03/30 04:29:24;;;;;;;16.88;4.95;;;;;;;12.78;73.33;96284.25;6184803;23;20021;-76
2023/03/30 04:31:51;;;;;;;13.27;3.72;;;;;;;12.72;73.50;96284.25;6184237;23;20021;-76
2023/03/30 04:34:20;;;;;;;15.02;3.92;;;;;;;12.67;73.89;96284.88;6184370;23;20478;-76
2023/03/30 04:36:48;;;;;;;12.90;3.40;;;;;;;12.63;74.15;96286.28;6184232;23;20075;-76
2023/03/30 04:39:19;;;;;;;16.77;4.57;;;;;;;12.61;74.38;96285.69;6184637;23;20028;-76
2023/03/30 04:41:47;;;;;;;20.58;3.85;;;;;;;12.61;74.46;96274.41;6184274;23;20407;-76
2023/03/30 04:44:19;;;;;;;12.43;3.28;;;;;;;12.59;74.56;96279.84;6184503;23;20017;-76
2023/03/30 04:46:46;;;;;;;15.73;4.63;;;;;;;12.58;74.50;96268.56;6184156;23;20033;-76
2023/03/30 04:49:14;;;;;;;11.05;3.92;;;;;;;12.57;74.83;96271.38;6184515;23;20092;-75
2023/03/30 04:51:42;;;;;;;12.82;4.30;;;;;;;12.56;75.01;96269.78;6184081;23;20021;-75
2023/03/30 04:54:09;;;;;;;13.55;4.30;;;;;;;12.52;75.16;96277.22;6184518;23;20021;-76
2023/03/30 04:56:38;;;;;;;13.85;3.92;;;;;;;12.49;75.43;96274.22;6184234;23;20029;-76
2023/03/30 04:59:06;;;;;;;15.00;3.65;;;;;;;12.49;75.47;96274.22;6184002;23;20108;-76
2023/03/30 05:01:33;;;;;;;16.38;4.18;;;;;;;12.48;75.41;96260.31;6183612;23;20103;-76
2023/03/30 05:04:01;;;;;;;11.65;4.68;;;;;;;12.46;75.64;96264.97;6184136;23;20467;-76
2023/03/30 05:06:28;;;;;;;16.58;4.95;;;;;;;12.42;75.70;96268.16;6184254;23;20021;-76
2023/03/30 05:08:56;;;;;;;14.40;4.53;;;;;;;12.39;75.70;96261.53;6184072;23;20041;-76
2023/03/30 05:11:25;;;;;;;11.90;3.53;;;;;;;12.35;76.00;96248.06;6186431;23;20020;-76
2023/03/30 05:13:53;;;;;;;13.73;3.90;;;;;;;12.31;76.22;96246.03;6183489;23;20032;-75
2023/03/30 05:16:21;;;;;;;16.63;4.15;;;;;;;12.28;76.16;96234.16;6183893;23;20025;-76
2023/03/30 05:18:49;;;;;;;13.40;4.00;;;;;;;12.24;76.20;96235.56;6184246;23;20044;-75
2023/03/30 05:21:18;;;;;;;13.55;3.80;;;;;;;12.24;76.04;96232.16;6183498;23;20028;-75
2023/03/30 05:23:45;;;;;;;16.60;4.30;;;;;;;12.21;76.33;96222.91;6183792;23;20021;-75
2023/03/30 05:26:13;;;;;;;14.80;3.92;;;;;;;12.17;76.42;96208.63;6183660;23;20017;-76
2023/03/30 05:28:41;;;;;;;14.35;3.45;;;;;;;12.18;76.48;96198.97;6184229;23;20027;-76
2023/03/30 05:31:10;;;;;;;11.43;3.45;;;;;;;12.18;76.51;96194.56;6183234;23;20478;-76
2023/03/30 05:33:38;;;;;;;20.70;3.95;;;;;;;12.16;76.48;96186.91;6184041;23;20028;-77
2023/03/30 05:36:10;;;;;;;18.00;3.90;;;;;;;12.16;76.41;96191.34;6183879;23;20096;-76
2023/03/30 05:38:38;;;;;;;13.07;4.13;;;;;;;12.16;76.34;96196.56;6184528;23;20017;-78
2023/03/30 05:41:06;;;;;;;15.00;4.60;;;;;;;12.15;76.70;96206.19;6186269;23;20025;-77
2023/03/30 05:43:34;;;;;;;10.63;3.92;;;;;;;12.13;76.67;96210.03;6186193;23;20027;-78
2023/03/30 05:46:02;;;;;;;11.50;4.47;;;;;;;12.10;76.71;96218.28;6186071;23;20021;-77
2023/03/30 05:48:31;;;;;;;29.25;6.03;;;;;;;12.04;76.86;96203.41;6186560;23;20075;-77
2023/03/30 05:50:58;;;;;;;15.07;4.22;;;;;;;12.00;76.93;96196.94;6186576;23;20017;-78
2023/03/30 05:53:28;;;;;;;13.77;4.78;;;;;;;11.97;77.13;96207.81;6186112;23;20050;-78
2023/03/30 05:55:56;;;;;;;18.33;3.95;;;;;;;11.93;76.93;96213.44;6185706;23;20024;-78
2023/03/30 05:58:24;;;;;;;14.85;4.10;;;;;;;11.93;77.33;96208.19;6186452;23;20032;-78
2023/03/30 06:01:08;;;;;;;11.35;4.80;;;;;;;11.94;77.40;96219.47;6184476;23;20025;-77
2023/03/30 06:03:37;;;;;;;11.85;4.30;;;;;;;11.97;77.50;96226.13;6185879;23;20032;-76
2023/03/30 06:06:06;;;;;;;17.48;5.25;;;;;;;11.97;77.26;96221.69;6185495;23;20017;-76
2023/03/30 06:08:34;;;;;;;16.67;5.07;;;;;;;11.97;77.02;96224.31;6184913;23;20105;-76
2023/03/30 06:11:02;;;;;;;14.73;4.05;;;;;;;11.95;77.15;96221.88;6184552;23;20032;-76
2023/03/30 06:13:30;;;;;;;11.95;4.50;;;;;;;11.93;77.24;96210.81;6185246;23;20083;-76
2023/03/30 06:15:58;;;;;;;16.02;4.68;;;;;;;11.92;76.95;96206.59;6185866;23;20021;-76
2023/03/30 06:18:29;;;;;;;19.23;4.53;;;;;;;11.92;77.09;96206.59;6186537;23;20017;-77
2023/03/30 06:21:01;;;;;;;15.63;4.75;;;;;;;11.93;77.22;96202.97;6187729;23;20140;-76
2023/03/30 06:23:29;;;;;;;15.30;5.10;;;;;;;11.94;77.07;96204.59;6195792;23;20025;-77
2023/03/30 06:25:58;;;;;;;16.85;3.85;;;;;;;11.94;77.03;96201.97;6207435;23;20048;-77
2023/03/30 06:28:26;;;;;;;12.52;4.60;;;;;;;11.99;76.89;96208.44;6207374;23;20081;-77
2023/03/30 06:30:53;;;;;;;11.77;4.28;;;;;;;12.02;76.70;96208.00;6205962;23;20032;-77
2023/03/30 06:33:21;;;;;;;17.95;5.38;;;;;;;12.04;76.51;96206.00;6206286;23;20025;-77
2023/03/30 06:35:50;;;;;;;15.23;4.93;;;;;;;12.05;76.66;96195.34;6204776;23;20033;-77
2023/03/30 06:38:20;;;;;;;16.67;4.63;;;;;;;12.09;76.92;96200.97;6193536;23;20090;-77
2023/03/30 06:40:49;;;;;;;12.30;3.90;;;;;;;12.11;77.04;96193.72;6186078;23;20394;-76
2023/03/30 06:43:20;;;;;;;11.88;4.25;;;;;;;12.13;76.63;96210.03;6186132;23;20123;-76
2023/03/30 06:45:51;;;;;;;15.65;4.70;;;;;;;12.13;76.66;96187.31;6189786;23;20024;-76
2023/03/30 06:48:21;;;;;;;13.37;4.53;;;;;;;12.17;76.74;96182.47;6199977;23;20021;-77
2023/03/30 06:50:49;;;;;;;12.93;4.22;;;;;;;12.22;76.68;96205.41;6197829;23;20467;-77
2023/03/30 06:53:17;;;;;;;17.60;4.45;;;;;;;12.25;76.82;96215.47;6188357;23;20021;-76
2023/03/30 06:55:51;;;;;;;19.63;5.18;;;;;;;12.26;77.53;96224.91;6186028;23;20099;-76
2023/03/30 06:58:19;;;;;;;21.23;5.53;;;;;;;12.26;77.42;96232.75;6186501;23;20029;-76
2023/03/30 07:00:47;;;;;;;16.23;4.30;;;;;;;12.28;77.50;96246.44;6184987;23;20064;-76
2023/03/30 07:03:17;;;;;;;8.57;3.40;;;;;;;12.30;77.10;96245.22;6184649;23;20055;-77
2023/03/30 07:05:47;;;;;;;14.20;4.00;;;;;;;12.31;76.99;96253.88;6185310;23;20406;-76
2023/03/30 07:08:14;;;;;;;19.60;3.83;;;;;;;12.35;76.64;96260.31;6184452;23;20108;-76
2023/03/30 07:10:42;;;;;;;9.35;3.33;;;;;;;12.38;76.38;96252.09;6184819;23;20100;-76
2023/03/30 07:13:11;;;;;;;21.40;4.40;;;;;;;12.42;75.93;96252.47;6181770;23;20032;-76
2023/03/30 07:15:38;;;;;;;9.38;3.42;;;;;;;12.45;76.10;96265.97;6184897;23;20355;-76
2023/03/30 07:18:07;;;;;;;11.88;4.07;;;;;;;12.48;75.96;96264.75;6184162;23;20017;-75
2023/03/30 07:20:35;;;;;;;17.73;4.35;;;;;;;12.49;75.91;96250.69;6185327;23;20024;-76
2023/03/30 07:23:02;;;;;;;15.73;4.25;;;;;;;12.48;75.32;96251.66;6185116;23;20048;-76
2023/03/30 07:25:31;;;;;;;10.77;3.80;;;;;;;12.48;75.27;96252.47;6186059;23;20108;-76
2023/03/30 07:27:59;;;;;;;7.20;3.60;;;;;;;12.50;74.92;96245.22;6185786;23;20025;-76
2023/03/30 07:30:27;;;;;;;18.27;4.57;;;;;;;12.50;75.00;96249.66;6185116;23;20060;-76
2023/03/30 07:32:55;;;;;;;15.13;4.25;;;;;;;12.51;74.53;96251.28;6185091;23;20036;-76
2023/03/30 07:35:25;;;;;;;14.52;4.40;;;;;;;12.54;74.45;96256.09;6185213;23;20056;-76
2023/03/30 07:37:53;;;;;;;13.85;4.00;;;;;;;12.56;74.78;96241.00;6185344;23;20386;-76
2023/03/30 07:40:30;;;;;;;16.10;4.22;;;;;;;12.62;74.93;96252.50;6185339;23;20021;-76
2023/03/30 07:42:58;;;;;;;16.55;3.35;;;;;;;12.68;74.66;96251.66;6185280;23;20347;-77
2023/03/30 07:45:25;;;;;;;14.48;3.75;;;;;;;12.75;74.02;96274.19;6185877;23;20059;-76
2023/03/30 07:47:54;;;;;;;14.40;3.33;;;;;;;12.83;73.08;96285.47;6186035;23;20055;-76
2023/03/30 07:50:24;;;;;;;9.90;3.03;;;;;;;12.87;73.05;96295.31;6185973;23;20044;-77
2023/03/30 07:52:52;;;;;;;9.82;2.80;;;;;;;12.98;73.77;96312.22;6184773;23;20116;-76
2023/03/30 07:55:19;;;;;;;15.63;3.80;;;;;;;13.01;73.34;96324.94;6185473;23;20028;-77
2023/03/30 07:57:47;;;;;;;13.57;3.13;;;;;;;13.06;72.02;96332.97;6186235;23;20458;-77
2023/03/30 08:00:16;;;;;;;14.55;3.67;;;;;;;13.11;72.00;96335.78;6186004;23;20021;-77
2023/03/30 08:02:43;;;;;;;10.40;2.97;;;;;;;13.16;71.62;96343.84;6185529;23;20025;-77
2023/03/30 08:05:14;;;;;;;15.15;2.92;;;;;;;13.23;71.43;96348.22;6184703;23;20031;-77
2023/03/30 08:07:42;;;;;;;15.40;3.22;;;;;;;13.27;71.72;96357.28;6184517;23;20391;-76
2023/03/30 08:10:10;;;;;;;13.73;3.30;;;;;;;13.28;71.63;96361.53;6184684;23;20024;-76
2023/03/30 08:12:37;;;;;;;9.98;3.95;;;;;;;13.27;71.92;96373.00;6184563;23;20056;-76
2023/03/30 08:15:06;;;;;;;13.13;4.15;;;;;;;13.25;72.66;96382.88;6184768;23;20111;-76
2023/03/30 08:17:33;;;;;;;13.95;4.32;;;;;;;13.18;73.32;96382.91;6183704;23;20013;-76
2023/03/30 08:20:02;;;;;;;12.30;3.78;;;;;;;13.09;74.14;96387.53;6181664;23;20021;-77
2023/03/30 08:22:31;;;;;;;9.80;3.60;;;;;;;13.02;74.97;96386.75;6181207;23;20505;-77
2023/03/30 08:24:58;;;;;;;14.80;4.00;;;;;;;12.99;75.29;96382.72;6182294;23;20063;-76
2023/03/30 08:27:26;;;;;;;11.93;4.13;;;;;;;12.99;75.61;96366.22;6183534;23;20021;-76
2023/03/30 08:29:53;;;;;;;16.13;3.88;;;;;;;12.97;75.83;96344.66;6183300;23;20021;-76
2023/03/30 08:32:21;;;;;;;12.57;3.67;;;;;;;13.02;76.13;96310.81;6183007;23;20075;-76
2023/03/30 08:34:49;;;;;;;13.02;4.38;;;;;;;13.06;76.15;96314.63;6183599;23;20021;-77
2023/03/30 08:37:16;;;;;;;8.45;3.80;;;;;;;13.14;76.40;96324.91;6183592;23;20107;-75
2023/03/30 08:39:45;;;;;;;10.30;3.28;;;;;;;13.38;76.13;96330.50;6184500;23;20032;-76
2023/03/30 08:42:31;;;;;;;11.77;3.92;;;;;;;13.58;75.95;96340.94;6183666;23;20029;-76
2023/03/30 08:45:03;;;;;;;12.13;4.07;;;;;;;13.64;74.78;96339.28;6183156;23;20630;-75
2023/03/30 08:47:34;;;;;;;7.72;3.20;;;;;;;13.59;75.22;96353.81;6183185;23;20466;-76
2023/03/30 08:50:08;;;;;;;9.52;3.22;;;;;;;13.55;75.17;96368.34;6184211;23;20099;-76
2023/03/30 08:52:36;;;;;;;13.13;3.85;;;;;;;13.48;75.25;96378.03;6183777;23;20104;-75
2023/03/30 08:55:08;;;;;;;11.43;3.95;;;;;;;13.39;75.59;96380.09;6184022;23;20021;-76
2023/03/30 08:57:46;;;;;;;14.93;4.95;;;;;;;13.34;76.01;96393.00;6183542;23;20021;-75
2023/03/30 09:00:26;;;;;;;11.65;4.25;;;;;;;13.29;76.56;96394.59;6183311;23;20021;-75
2023/03/30 09:03:01;;;;;;;12.90;4.07;;;;;;;13.25;77.16;96396.81;6183536;23;20406;-76
2023/03/30 09:05:31;;;;;;;12.02;4.45;;;;;;;13.26;77.08;96395.00;6183678;23;20386;-75
2023/03/30 09:08:09;;;;;;;8.95;3.97;;;;;;;13.23;77.46;96405.84;6183830;23;20488;-75
2023/03/30 09:10:43;;;;;;;12.05;4.63;;;;;;;13.19;77.96;96406.28;6183136;23;20013;-76
2023/03/30 09:13:16;;;;;;;11.65;4.35;;;;;;;13.14;78.15;96398.22;6184384;23;20100;-76
2023/03/30 09:15:48;;;;;;;15.38;4.85;;;;;;;13.12;78.72;96400.25;6186358;23;20027;-75
2023/03/30 09:18:20;;;;;;;13.50;4.68;;;;;;;13.10;78.55;96407.50;6185307;23;20024;-75
2023/03/30 09:20:52;;;;;;;10.25;3.83;;;;;;;13.04;78.71;96418.78;6185976;23;20116;-76
2023/03/30 09:23:20;;;;;;;8.40;3.97;;;;;;;12.96;78.32;96426.81;6185038;23;20020;-74
2023/03/30 09:25:57;;;;;;;9.98;3.63;;;;;;;12.86;79.08;96436.91;6184556;23;20024;-75
2023/03/30 09:28:34;;;;;;;10.15;4.35;;;;;;;12.78;78.90;96436.06;6185610;23;20087;-75
2023/03/30 09:31:04;;;;;;;8.40;4.28;;;;;;;12.73;78.78;96432.44;6185030;23;20505;-74
2023/03/30 09:33:45;;;;;;;10.85;4.40;;;;;;;12.71;78.78;96414.31;6186275;23;20021;-75
2023/03/30 09:36:17;;;;;;;5.80;3.45;;;;;;;12.75;79.19;96406.88;6185356;23;20017;-75
2023/03/30 09:38:45;;;;;;;;;;;;;;;12.81;79.17;96400.81;6186576;23;20049;-75
2023/03/30 09:41:41;;;;;;;6.32;2.28;;;;;;;12.91;77.87;96424.00;6185390;23;19917;-75
2023/03/30 09:44:18;;;;;;;7.90;3.42;;;;;;;12.95;78.11;96412.13;6185659;23;20103;-75
2023/03/30 09:46:48;;;;;;;6.60;2.75;;;;;;;12.98;76.84;96407.28;6185574;23;20017;-75
2023/03/30 09:49:16;;;;;;;5.10;2.50;;;;;;;12.98;76.73;96394.19;6185443;23;20025;-75
2023/03/30 09:52:00;;;;;;;5.60;2.40;;;;;;;13.01;77.88;96408.72;6193658;23;20025;-75
2023/03/30 09:54:35;;;;;;;5.07;2.67;;;;;;;13.04;77.15;96397.03;6200559;23;20056;-75
2023/03/30 09:57:05;;;;;;;7.03;2.80;;;;;;;13.03;78.01;96390.16;6191670;23;20328;-75
2023/03/30 09:59:35;;;;;;;3.97;2.55;;;;;;;13.03;77.35;96387.53;6186142;23;20100;-75
2023/03/30 10:02:16;;;;;;;4.75;2.65;;;;;;;12.99;78.02;96353.91;6185661;23;20052;-75
2023/03/30 10:05:00;;;;;;;5.40;2.90;;;;;;;12.96;78.13;96363.97;6185548;23;20514;-75
2023/03/30 10:07:32;;;;;;;5.22;2.60;;;;;;;12.92;77.31;96347.88;6185440;23;20096;-74
2023/03/30 10:10:02;;;;;;;6.93;2.72;;;;;;;12.90;77.92;96338.59;6184407;23;20104;-75
2023/03/30 10:12:30;;;;;;;4.97;2.13;;;;;;;12.89;77.23;96342.25;6184808;23;20021;-75
2023/03/30 10:15:03;;;;;;;3.80;2.22;;;;;;;12.87;76.72;96320.69;6185076;23;20025;-75
2023/03/30 10:17:31;;;;;;;7.43;2.40;;;;;;;12.87;76.99;96326.72;6185148;23;20032;-75
2023/03/30 10:20:17;;;;;;;6.60;2.20;;;;;;;12.88;77.42;96345.84;6184852;23;20025;-75
2023/03/30 10:22:50;;;;;;;4.07;2.55;;;;;;;12.88;77.39;96345.84;6183460;23;20056;-75
2023/03/30 10:25:22;;;;;;;5.35;2.50;;;;;;;12.90;77.21;96355.13;6185218;23;20025;-75
2023/03/30 10:27:54;;;;;;;5.10;2.70;;;;;;;12.91;76.67;96350.69;6184863;23;20059;-75
2023/03/30 10:30:25;;;;;;;4.95;2.50;;;;;;;12.90;76.65;96354.31;6185291;23;20080;-75
2023/03/30 10:32:55;;;;;;;3.75;2.03;;;;;;;12.89;74.73;96363.97;6184462;23;20013;-74
2023/03/30 10:35:26;;;;;;;3.70;2.22;;;;;;;12.90;74.29;96363.00;6184518;23;20025;-74
2023/03/30 10:37:57;;;;;;;2.83;2.50;;;;;;;12.92;74.13;96362.78;6185436;23;20021;-75
2023/03/30 10:40:31;;;;;;;6.65;2.45;;;;;;;12.94;74.77;96360.75;6185021;23;20050;-75
2023/03/30 10:43:01;;;;;;;5.68;2.63;;;;;;;12.96;72.95;96358.75;6184876;23;20027;-75
2023/03/30 10:45:34;;;;;;;4.18;2.80;;;;;;;12.99;73.28;96363.59;6184904;23;20052;-75
2023/03/30 10:48:19;;;;;;;5.82;2.28;;;;;;;13.04;72.74;96355.13;6184301;23;20454;-75
2023/03/30 10:50:55;;;;;;;3.13;1.98;;;;;;;13.09;71.62;96360.56;6185418;23;20021;-75
2023/03/30 10:53:37;;;;;;;4.93;1.95;;;;;;;13.12;71.14;96371.44;6184796;23;20021;-75
2023/03/30 10:56:27;;;;;;;5.05;2.25;;;;;;;13.14;71.04;96389.53;6184639;23;20467;-75
2023/03/30 10:59:13;;;;;;;6.28;2.85;;;;;;;13.15;71.63;96367.59;6185162;23;20017;-75
2023/03/30 11:01:54;;;;;;;6.35;2.85;;;;;;;13.14;73.54;96369.41;6184162;23;20048;-75
2023/03/30 11:04:27;;;;;;;3.88;2.40;;;;;;;13.17;72.03;96376.06;6183735;23;20021;-74
2023/03/30 11:06:58;;;;;;;6.22;2.33;;;;;;;13.22;70.83;96367.59;6184193;23;20025;-74
2023/03/30 11:09:31;;;;;;;4.57;2.53;;;;;;;13.23;70.83;96363.94;6184482;23;20080;-75
2023/03/30 11:12:03;;;;;;;7.97;2.38;;;;;;;13.25;71.97;96354.06;6184064;23;20392;-78
2023/03/30 11:14:41;;;;;;;5.82;2.40;;;;;;;13.26;72.11;96353.09;6184338;23;20403;-77
2023/03/30 11:17:16;;;;;;;4.65;2.13;;;;;;;13.26;71.12;96342.59;6183964;23;20021;-77
2023/03/30 11:19:49;;;;;;;5.95;2.58;;;;;;;13.27;70.16;96345.03;6184599;23;20025;-77
2023/03/30 11:22:27;;;;;;;4.97;2.65;;;;;;;13.31;71.77;96351.47;6184748;23;20108;-76
2023/03/30 11:24:59;;;;;;;7.22;2.70;;;;;;;13.36;71.01;96346.44;6185320;23;20020;-77
2023/03/30 11:27:30;;;;;;;4.22;2.55;;;;;;;13.40;71.12;96344.19;6184415;23;20021;-77
2023/03/30 11:30:07;;;;;;;5.82;2.63;;;;;;;13.46;71.19;96345.19;6184763;23;20021;-77
2023/03/30 11:32:41;;;;;;;5.80;2.80;;;;;;;13.46;70.93;96338.13;6184093;23;20530;-77
2023/03/30 11:35:16;;;;;;;5.93;2.50;;;;;;;13.46;70.63;96342.59;6184181;23;20021;-76
2023/03/30 11:37:52;;;;;;;4.13;2.28;;;;;;;13.44;70.32;96345.41;6183834;23;20458;-77
2023/03/30 11:40:22;;;;;;;4.28;2.58;;;;;;;13.44;71.00;96355.09;6183993;23;20021;-76
2023/03/30 11:42:53;;;;;;;4.18;2.08;;;;;;;13.43;70.63;96349.03;6183914;23;20025;-77
2023/03/30 11:45:43;;;;;;;7.18;2.75;;;;;;;13.43;70.91;96354.28;6184186;23;20031;-78
2023/03/30 11:48:34;;;;;;;5.72;2.55;;;;;;;13.42;71.22;96344.81;6184726;23;20017;-77